createdAt,value
2023-01-19T00:02:07.146Z,60.24
2023-01-19T00:04:38.663Z,54.87
2023-01-19T00:07:10.050Z,58.10
2023-01-19T00:09:41.136Z,56.33
2023-01-19T00:12:11.656Z,55.89
2023-01-19T00:14:42.566Z,57.44
2023-01-19T00:17:13.699Z,55.46
2023-01-19T00:19:45.039Z,55.47
2023-01-19T00:22:16.009Z,60.60
2023-01-19T00:24:46.745Z,55.15
2023-01-19T00:27:17.884Z,59.71
2023-01-19T00:29:49.175Z,55.61
2023-01-19T00:32:21.743Z,62.24
2023-01-19T00:34:53.817Z,57.99
2023-01-19T00:37:24.873Z,64.07
2023-01-19T00:39:55.729Z,61.43
2023-01-19T00:42:47.241Z,57.16
2023-01-19T00:45:23.652Z,58.13
2023-01-19T00:47:58.569Z,59.89
2023-01-19T00:50:31.339Z,59.34
2023-01-19T00:53:03.212Z,59.04
2023-01-19T00:55:37.444Z,56.73
2023-01-19T00:58:08.731Z,56.34
2023-01-19T01:00:40.314Z,58.73
2023-01-19T01:03:12.701Z,60.70
2023-01-19T01:05:44.767Z,67.40
2023-01-19T01:08:15.222Z,63.74
2023-01-19T01:10:46.417Z,59.84
2023-01-19T01:13:20.334Z,66.86
2023-01-19T01:15:53.811Z,66.44
2023-01-19T01:18:26.258Z,66.57
2023-01-19T01:21:07.665Z,70.07
2023-01-19T01:23:39.012Z,72.34
2023-01-19T01:26:10.367Z,72.72
2023-01-19T01:28:41.565Z,72.18
2023-01-19T01:31:11.995Z,71.90
2023-01-19T01:33:43.065Z,72.93
2023-01-19T01:36:14.617Z,75.45
2023-01-19T01:38:45.680Z,70.96
2023-01-19T01:41:17.110Z,76.87
2023-01-19T01:43:59.655Z,75.71
2023-01-19T01:46:32.611Z,74.43
2023-01-19T01:49:10.093Z,73.54
2023-01-19T01:51:53.363Z,73.15
2023-01-19T01:54:29.111Z,70.52
2023-01-19T01:57:05.836Z,72.59
2023-01-19T01:59:42.590Z,73.01
2023-01-19T02:02:55.874Z,70.85
2023-01-19T02:05:31.289Z,74.50
2023-01-19T02:08:38.384Z,68.26
2023-01-19T02:11:27.523Z,70.57
2023-01-19T02:13:58.931Z,69.89
2023-01-19T02:16:31.500Z,74.52
2023-01-19T02:19:02.633Z,72.84
2023-01-19T02:21:33.187Z,71.61
2023-01-19T02:24:04.544Z,71.16
2023-01-19T02:26:46.760Z,72.42
2023-01-19T02:29:21.156Z,72.10
2023-01-19T02:31:52.357Z,74.90
2023-01-19T02:34:24.326Z,78.60
2023-01-19T02:37:25.625Z,76.75
2023-01-19T02:39:59.831Z,79.90
2023-01-19T02:42:34.718Z,82.91
2023-01-19T02:45:08.436Z,83.28
2023-01-19T02:47:53.333Z,81.96
2023-01-19T02:50:51.271Z,82.29
2023-01-19T02:53:34.612Z,82.70
2023-01-19T02:56:38.727Z,83.09
2023-01-19T02:59:21.607Z,85.16
2023-01-19T03:01:52.560Z,83.41
2023-01-19T03:04:38.467Z,84.36
2023-01-19T03:07:31.764Z,86.12
2023-01-19T03:10:13.597Z,86.30
2023-01-19T03:12:54.696Z,90.98
2023-01-19T03:15:51.134Z,90.20
2023-01-19T03:18:25.859Z,90.60
2023-01-19T03:20:59.951Z,87.60
2023-01-19T03:23:33.578Z,85.56
2023-01-19T03:26:06.677Z,85.62
2023-01-19T03:28:38.419Z,87.38
2023-01-19T03:31:22.562Z,85.66
2023-01-19T03:34:02.431Z,83.78
2023-01-19T03:36:39.387Z,81.90
2023-01-19T03:39:11.869Z,78.83
2023-01-19T03:41:43.990Z,76.80
2023-01-19T03:44:15.116Z,78.25
2023-01-19T03:46:47.775Z,80.25
2023-01-19T03:49:19.016Z,78.89
2023-01-19T03:51:50.307Z,79.84
2023-01-19T03:54:21.274Z,80.62
2023-01-19T03:56:53.914Z,83.23
2023-01-19T03:59:25.016Z,79.02
2023-01-19T04:01:56.355Z,77.36
2023-01-19T04:04:27.252Z,80.02
2023-01-19T04:06:59.166Z,76.07
2023-01-19T04:09:30.163Z,78.29
2023-01-19T04:12:03.366Z,78.45
2023-01-19T04:14:34.246Z,77.49
2023-01-19T04:17:05.142Z,77.82
2023-01-19T04:19:36.602Z,80.15
2023-01-19T04:22:07.500Z,79.15
2023-01-19T04:24:38.653Z,79.86
2023-01-19T04:27:09.463Z,81.89
2023-01-19T04:29:40.254Z,81.38
2023-01-19T04:32:11.358Z,81.21
2023-01-19T04:34:42.713Z,82.24
2023-01-19T04:37:14.010Z,84.94
2023-01-19T04:39:45.345Z,87.61
2023-01-19T04:42:16.702Z,89.80
2023-01-19T04:44:48.182Z,90.41
2023-01-19T04:47:18.619Z,92.00
2023-01-19T04:49:50.047Z,90.10
2023-01-19T04:52:20.959Z,93.04
2023-01-19T04:54:51.847Z,92.98
2023-01-19T04:57:22.627Z,91.55
2023-01-19T04:59:53.679Z,89.68
2023-01-19T05:02:24.905Z,88.04
2023-01-19T05:04:56.201Z,86.53
2023-01-19T05:07:27.295Z,84.74
2023-01-19T05:09:58.589Z,82.19
2023-01-19T05:12:30.625Z,81.45
2023-01-19T05:15:01.516Z,83.00
2023-01-19T05:17:33.465Z,81.65
2023-01-19T05:20:05.256Z,78.34
2023-01-19T05:22:36.274Z,76.21
2023-01-19T05:25:10.175Z,75.60
2023-01-19T05:27:41.223Z,74.11
2023-01-19T05:30:13.654Z,73.26
2023-01-19T05:32:44.752Z,76.45
2023-01-19T05:35:18.300Z,75.39
2023-01-19T05:37:51.383Z,78.95
2023-01-19T05:40:23.093Z,81.23
2023-01-19T05:42:54.738Z,79.48
2023-01-19T05:45:25.703Z,77.92
2023-01-19T05:47:57.297Z,81.20
2023-01-19T05:50:28.689Z,82.00
2023-01-19T05:53:01.599Z,86.94
2023-01-19T05:55:33.668Z,90.53
2023-01-19T05:58:04.848Z,93.05
2023-01-19T06:00:36.200Z,91.83
2023-01-19T06:03:07.928Z,94.33
2023-01-19T06:05:40.941Z,98.46
2023-01-19T06:08:11.796Z,100.00
2023-01-19T06:10:42.715Z,100.00
2023-01-19T06:13:14.482Z,100.00
2023-01-19T06:15:46.452Z,100.00
2023-01-19T06:18:17.132Z,100.00
2023-01-19T06:20:48.331Z,100.00
2023-01-19T06:23:18.965Z,100.00
2023-01-19T06:25:51.621Z,100.00
2023-01-19T06:28:22.878Z,100.00
2023-01-19T06:30:55.334Z,100.00
2023-01-19T06:33:27.361Z,100.00
2023-01-19T06:35:59.057Z,100.00
2023-01-19T06:38:30.551Z,100.00
2023-01-19T06:41:04.145Z,99.49
2023-01-19T06:43:35.559Z,96.12
2023-01-19T06:46:06.530Z,96.75
2023-01-19T06:48:37.391Z,97.29
2023-01-19T06:51:08.750Z,97.90
2023-01-19T06:53:40.207Z,99.95
2023-01-19T06:56:11.688Z,100.00
2023-01-19T06:58:44.119Z,100.00
2023-01-19T07:01:15.215Z,100.00
2023-01-19T07:03:46.980Z,100.00
2023-01-19T07:06:17.977Z,100.00
2023-01-19T07:08:49.104Z,100.00
2023-01-19T07:11:26.404Z,100.00
2023-01-19T07:14:02.606Z,100.00
2023-01-19T07:16:34.135Z,100.00
2023-01-19T07:19:04.611Z,100.00
2023-01-19T07:21:35.634Z,100.00
2023-01-19T07:24:06.367Z,100.00
2023-01-19T07:26:37.232Z,100.00
2023-01-19T07:29:08.672Z,100.00
2023-01-19T07:31:40.255Z,100.00
2023-01-19T07:34:12.622Z,100.00
2023-01-19T07:36:44.232Z,100.00
2023-01-19T07:39:15.605Z,100.00
2023-01-19T07:41:46.686Z,100.00
2023-01-19T07:44:18.042Z,100.00
2023-01-19T07:46:48.567Z,100.00
2023-01-19T07:49:19.731Z,100.00
2023-01-19T07:51:51.044Z,100.00
2023-01-19T07:54:22.253Z,100.00
2023-01-19T07:56:56.623Z,100.00
2023-01-19T07:59:27.568Z,100.00
2023-01-19T08:02:00.858Z,100.00
2023-01-19T08:04:32.170Z,100.00
2023-01-19T08:07:02.882Z,100.00
2023-01-19T08:09:34.192Z,100.00
2023-01-19T08:12:05.483Z,100.00
2023-01-19T08:14:37.447Z,100.00
2023-01-19T08:17:08.445Z,100.00
2023-01-19T08:19:41.405Z,100.00
2023-01-19T08:22:12.700Z,100.00
2023-01-19T08:24:43.855Z,100.00
2023-01-19T08:27:14.934Z,100.00
2023-01-19T08:29:46.317Z,100.00
2023-01-19T08:32:17.402Z,100.00
2023-01-19T08:34:48.469Z,100.00
2023-01-19T08:37:19.678Z,100.00
2023-01-19T08:39:50.489Z,100.00
2023-01-19T08:42:21.822Z,100.00
2023-01-19T08:44:58.053Z,100.00
2023-01-19T08:47:29.948Z,100.00
2023-01-19T08:50:01.346Z,100.00
2023-01-19T08:52:33.438Z,100.00
2023-01-19T08:55:04.843Z,100.00
2023-01-19T08:57:36.451Z,100.00
2023-01-19T09:00:09.351Z,100.00
2023-01-19T09:02:40.724Z,100.00
2023-01-19T09:05:11.893Z,100.00
2023-01-19T09:07:43.265Z,100.00
2023-01-19T09:10:15.002Z,100.00
2023-01-19T09:12:46.532Z,100.00
2023-01-19T09:15:18.566Z,100.00
2023-01-19T09:17:49.765Z,100.00
2023-01-19T09:20:20.922Z,100.00
2023-01-19T09:22:52.028Z,100.00
2023-01-19T09:25:23.173Z,100.00
2023-01-19T09:27:54.446Z,100.00
2023-01-19T09:30:25.770Z,100.00
2023-01-19T09:32:59.283Z,100.00
2023-01-19T09:35:30.262Z,100.00
2023-01-19T09:38:02.120Z,100.00
2023-01-19T09:40:33.582Z,100.00
2023-01-19T09:43:53.819Z,100.00
2023-01-19T09:46:44.074Z,100.00
2023-01-19T09:49:32.335Z,100.00
2023-01-19T09:52:03.761Z,100.00
2023-01-19T09:54:49.172Z,100.00
2023-01-19T09:57:20.370Z,100.00
2023-01-19T09:59:52.889Z,100.00
2023-01-19T10:03:03.376Z,100.00
2023-01-19T10:05:43.836Z,100.00
2023-01-19T10:08:38.177Z,100.00
2023-01-19T10:11:52.007Z,100.00
2023-01-19T10:14:39.038Z,100.00
2023-01-19T10:17:59.221Z,100.00
2023-01-19T10:20:52.623Z,100.00
2023-01-19T10:23:56.156Z,100.00
2023-01-19T10:26:28.234Z,100.00
2023-01-19T10:29:05.243Z,100.00
2023-01-19T10:31:38.397Z,100.00
2023-01-19T10:34:11.035Z,100.00
2023-01-19T10:36:42.839Z,100.00
2023-01-19T10:39:17.319Z,100.00
2023-01-19T10:41:55.758Z,100.00
2023-01-19T10:44:29.483Z,100.00
2023-01-19T10:47:01.635Z,100.00
2023-01-19T10:49:41.589Z,100.00
2023-01-19T10:52:36.412Z,100.00
2023-01-19T10:55:13.941Z,100.00
2023-01-19T10:57:46.646Z,100.00
2023-01-19T11:00:32.705Z,100.00
2023-01-19T11:03:04.787Z,100.00
2023-01-19T11:05:37.501Z,100.00
2023-01-19T11:08:31.079Z,100.00
2023-01-19T11:11:05.971Z,100.00
2023-01-19T11:13:38.364Z,100.00
2023-01-19T11:16:41.550Z,100.00
2023-01-19T11:19:31.231Z,100.00
2023-01-19T11:22:26.291Z,100.00
2023-01-19T11:25:02.227Z,100.00
2023-01-19T11:27:36.673Z,100.00
2023-01-19T11:30:17.956Z,100.00
2023-01-19T11:32:50.650Z,100.00
2023-01-19T11:35:36.067Z,100.00
2023-01-19T11:38:20.010Z,100.00
2023-01-19T11:40:59.243Z,100.00
2023-01-19T11:43:48.363Z,100.00
2023-01-19T11:46:20.403Z,100.00
2023-01-19T11:49:03.460Z,100.00
2023-01-19T11:51:46.159Z,100.00
2023-01-19T11:54:31.450Z,100.00
2023-01-19T11:57:04.306Z,100.00
2023-01-19T11:59:35.898Z,100.00
2023-01-19T12:02:28.545Z,100.00
2023-01-19T12:05:02.787Z,100.00
2023-01-19T12:07:36.127Z,100.00
2023-01-19T12:10:31.178Z,100.00
2023-01-19T12:13:03.069Z,100.00
2023-01-19T12:15:39.924Z,100.00
2023-01-19T12:18:20.518Z,100.00
2023-01-19T12:20:57.777Z,100.00
2023-01-19T12:23:31.732Z,100.00
2023-01-19T12:26:44.524Z,100.00
2023-01-19T12:29:17.538Z,100.00
2023-01-19T12:31:50.467Z,100.00
2023-01-19T12:34:37.511Z,100.00
2023-01-19T12:37:32.499Z,100.00
2023-01-19T12:40:28.593Z,100.00
2023-01-19T12:43:03.586Z,100.00
2023-01-19T12:45:41.110Z,100.00
2023-01-19T12:48:26.971Z,100.00
2023-01-19T12:50:57.886Z,100.00
2023-01-19T12:53:28.819Z,100.00
2023-01-19T12:56:07.416Z,100.00
2023-01-19T12:58:38.500Z,100.00
2023-01-19T13:01:19.779Z,100.00
2023-01-19T13:04:29.582Z,100.00
2023-01-19T13:07:07.175Z,100.00
2023-01-19T13:09:40.164Z,100.00
2023-01-19T13:12:17.428Z,100.00
2023-01-19T13:14:49.047Z,100.00
2023-01-19T13:17:35.411Z,100.00
2023-01-19T13:20:20.279Z,100.00
2023-01-19T13:22:52.946Z,100.00
2023-01-19T13:25:36.963Z,100.00
2023-01-19T13:28:11.138Z,100.00
2023-01-19T13:30:56.953Z,100.00
2023-01-19T13:33:30.338Z,100.00
2023-01-19T13:36:01.968Z,100.00
2023-01-19T13:38:34.616Z,100.00
2023-01-19T13:41:05.896Z,100.00
2023-01-19T13:43:39.508Z,100.00
2023-01-19T13:46:13.548Z,100.00
2023-01-19T13:48:56.480Z,100.00
2023-01-19T13:51:27.902Z,100.00
2023-01-19T13:54:07.097Z,100.00
2023-01-19T13:56:38.103Z,100.00
2023-01-19T13:59:13.904Z,100.00
2023-01-19T14:01:47.609Z,100.00
2023-01-19T14:04:35.976Z,100.00
2023-01-19T14:07:13.593Z,100.00
2023-01-19T14:09:44.649Z,100.00
2023-01-19T14:12:18.946Z,100.00
2023-01-19T14:14:50.245Z,100.00
2023-01-19T14:17:25.010Z,100.00
2023-01-19T14:19:58.950Z,100.00
2023-01-19T14:22:45.131Z,100.00
2023-01-19T14:25:37.104Z,100.00
2023-01-19T14:28:30.621Z,100.00
2023-01-19T14:31:18.499Z,100.00
2023-01-19T14:33:50.825Z,100.00
2023-01-19T14:36:27.870Z,100.00
2023-01-19T14:39:01.647Z,100.00
2023-01-19T14:41:42.606Z,100.00
2023-01-19T14:44:18.653Z,100.00
2023-01-19T14:46:50.591Z,100.00
2023-01-19T14:49:41.984Z,100.00
2023-01-19T14:52:28.687Z,100.00
2023-01-19T14:55:00.941Z,100.00
2023-01-19T14:57:32.354Z,100.00
2023-01-19T15:00:04.509Z,100.00
2023-01-19T15:02:35.818Z,100.00
2023-01-19T15:05:07.697Z,100.00
2023-01-19T15:07:39.062Z,100.00
2023-01-19T15:10:27.210Z,100.00
2023-01-19T15:12:58.823Z,100.00
2023-01-19T15:15:33.397Z,100.00
2023-01-19T15:18:06.111Z,100.00
2023-01-19T15:20:37.145Z,100.00
2023-01-19T15:23:08.408Z,100.00
2023-01-19T15:25:43.796Z,100.00
2023-01-19T15:28:17.724Z,100.00
2023-01-19T15:30:49.071Z,100.00
2023-01-19T15:33:23.019Z,100.00
2023-01-19T15:35:54.983Z,100.00
2023-01-19T15:38:42.604Z,100.00
2023-01-19T15:41:37.725Z,100.00
2023-01-19T15:44:10.613Z,100.00
2023-01-19T15:46:41.865Z,100.00
2023-01-19T15:49:13.269Z,100.00
2023-01-19T15:51:44.655Z,100.00
2023-01-19T15:54:16.408Z,100.00
2023-01-19T15:56:47.723Z,100.00
2023-01-19T15:59:18.737Z,100.00
2023-01-19T16:01:52.271Z,100.00
2023-01-19T16:04:23.693Z,100.00
2023-01-19T16:06:54.857Z,100.00
2023-01-19T16:09:25.966Z,100.00
2023-01-19T16:11:58.819Z,100.00
2023-01-19T16:14:29.675Z,100.00
2023-01-19T16:17:03.641Z,100.00
2023-01-19T16:19:34.732Z,100.00
2023-01-19T16:22:07.129Z,100.00
2023-01-19T16:24:38.308Z,100.00
2023-01-19T16:27:10.393Z,100.00
2023-01-19T16:29:41.749Z,100.00
2023-01-19T16:32:12.715Z,100.00
2023-01-19T16:34:44.040Z,100.00
2023-01-19T16:37:15.106Z,100.00
2023-01-19T16:39:46.867Z,100.00
2023-01-19T16:42:18.167Z,100.00
2023-01-19T16:44:49.524Z,100.00
2023-01-19T16:47:20.955Z,100.00
2023-01-19T16:49:52.060Z,100.00
2023-01-19T16:52:23.100Z,100.00
2023-01-19T16:54:56.052Z,100.00
2023-01-19T16:57:27.172Z,100.00
2023-01-19T16:59:58.026Z,100.00
2023-01-19T17:02:29.211Z,100.00
2023-01-19T17:05:01.734Z,100.00
2023-01-19T17:07:33.657Z,100.00
2023-01-19T17:10:04.329Z,100.00
2023-01-19T17:12:35.682Z,100.00
2023-01-19T17:15:07.337Z,100.00
2023-01-19T17:17:38.188Z,100.00
2023-01-19T17:20:10.634Z,100.00
2023-01-19T17:22:41.936Z,100.00
2023-01-19T17:25:13.203Z,100.00
2023-01-19T17:27:44.278Z,100.00
2023-01-19T17:30:15.866Z,100.00
2023-01-19T17:32:46.932Z,100.00
2023-01-19T17:35:17.882Z,100.00
2023-01-19T17:37:48.819Z,100.00
2023-01-19T17:40:20.135Z,100.00
2023-01-19T17:42:51.081Z,100.00
2023-01-19T17:45:22.083Z,100.00
2023-01-19T17:47:53.748Z,100.00
2023-01-19T17:50:25.002Z,100.00
2023-01-19T17:52:56.027Z,100.00
2023-01-19T17:55:27.050Z,100.00
2023-01-19T17:57:59.622Z,100.00
2023-01-19T18:00:31.715Z,100.00
2023-01-19T18:03:02.789Z,100.00
2023-01-19T18:05:34.128Z,100.00
2023-01-19T18:08:05.179Z,100.00
2023-01-19T18:10:36.543Z,100.00
2023-01-19T18:13:07.760Z,100.00
2023-01-19T18:15:39.124Z,100.00
2023-01-19T18:18:10.389Z,100.00
2023-01-19T18:20:42.192Z,100.00
2023-01-19T18:23:14.494Z,100.00
2023-01-19T18:25:45.484Z,100.00
2023-01-19T18:28:16.823Z,100.00
2023-01-19T18:30:48.201Z,100.00
2023-01-19T18:33:19.379Z,100.00
2023-01-19T18:35:50.547Z,100.00
2023-01-19T18:38:21.972Z,100.00
2023-01-19T18:41:06.319Z,100.00
2023-01-19T18:43:38.001Z,100.00
2023-01-19T18:46:09.666Z,100.00
2023-01-19T18:48:41.403Z,100.00
2023-01-19T18:51:15.336Z,100.00
2023-01-19T18:53:47.519Z,100.00
2023-01-19T18:56:18.885Z,100.00
2023-01-19T18:58:50.405Z,100.00
2023-01-19T19:01:32.500Z,100.00
2023-01-19T19:04:04.432Z,100.00
2023-01-19T19:06:35.883Z,100.00
2023-01-19T19:09:07.163Z,100.00
2023-01-19T19:11:38.333Z,100.00
2023-01-19T19:14:09.777Z,100.00
2023-01-19T19:16:40.921Z,100.00
2023-01-19T19:19:14.428Z,100.00
2023-01-19T19:21:48.073Z,100.00
2023-01-19T19:24:19.506Z,100.00
2023-01-19T19:26:50.401Z,100.00
2023-01-19T19:29:22.315Z,100.00
2023-01-19T19:31:57.177Z,100.00
2023-01-19T19:34:29.383Z,100.00
2023-01-19T19:37:01.281Z,100.00
2023-01-19T19:39:32.454Z,100.00
2023-01-19T19:42:03.504Z,100.00
2023-01-19T19:44:34.626Z,100.00
2023-01-19T19:47:05.953Z,100.00
2023-01-19T19:49:36.985Z,100.00
2023-01-19T19:52:08.099Z,100.00
2023-01-19T19:54:39.535Z,100.00
2023-01-19T19:57:10.674Z,100.00
2023-01-19T19:59:42.133Z,100.00
2023-01-19T20:02:14.736Z,100.00
2023-01-19T20:04:46.402Z,100.00
2023-01-19T20:07:18.025Z,100.00
2023-01-19T20:09:49.109Z,100.00
2023-01-19T20:12:20.182Z,100.00
2023-01-19T20:14:51.308Z,100.00
2023-01-19T20:17:22.548Z,100.00
2023-01-19T20:19:53.567Z,100.00
2023-01-19T20:22:24.689Z,100.00
2023-01-19T20:24:56.202Z,100.00
2023-01-19T20:27:27.057Z,100.00
2023-01-19T20:29:59.604Z,100.00
2023-01-19T20:32:29.942Z,100.00
2023-01-19T20:35:01.592Z,100.00
2023-01-19T20:37:33.351Z,100.00
2023-01-19T20:40:04.689Z,100.00
2023-01-19T20:42:35.501Z,100.00
2023-01-19T20:45:06.856Z,100.00
2023-01-19T20:47:37.384Z,100.00
2023-01-19T20:50:09.061Z,100.00
2023-01-19T20:52:40.324Z,100.00
2023-01-19T20:55:11.804Z,100.00
2023-01-19T20:57:43.196Z,100.00
2023-01-19T21:00:14.521Z,100.00
2023-01-19T21:02:45.989Z,100.00
2023-01-19T21:05:17.276Z,100.00
2023-01-19T21:07:48.601Z,100.00
2023-01-19T21:10:20.410Z,100.00
2023-01-19T21:12:51.805Z,100.00
2023-01-19T21:15:22.685Z,100.00
2023-01-19T21:17:53.614Z,100.00
2023-01-19T21:20:25.103Z,100.00
2023-01-19T21:22:55.999Z,100.00
2023-01-19T21:25:27.167Z,100.00
2023-01-19T21:27:58.241Z,100.00
2023-01-19T21:30:29.158Z,100.00
2023-01-19T21:33:00.148Z,100.00
2023-01-19T21:35:31.285Z,100.00
2023-01-19T21:38:02.591Z,100.00
2023-01-19T21:40:33.809Z,100.00
2023-01-19T21:43:04.748Z,100.00
2023-01-19T21:45:35.520Z,100.00
2023-01-19T21:48:06.688Z,100.00
2023-01-19T21:50:38.558Z,100.00
2023-01-19T21:53:12.706Z,100.00
2023-01-19T21:55:47.041Z,100.00
2023-01-19T21:58:18.090Z,100.00
2023-01-19T22:00:49.170Z,100.00
2023-01-19T22:03:21.299Z,100.00
2023-01-19T22:05:52.683Z,100.00
2023-01-19T22:08:24.421Z,100.00
2023-01-19T22:10:55.593Z,100.00
2023-01-19T22:13:26.693Z,100.00
2023-01-19T22:16:10.264Z,100.00
2023-01-19T22:18:43.131Z,100.00
2023-01-19T22:21:16.658Z,100.00
2023-01-19T22:23:51.379Z,100.00
2023-01-19T22:26:23.169Z,100.00
2023-01-19T22:28:58.444Z,100.00
2023-01-19T22:31:31.889Z,100.00
2023-01-19T22:34:03.448Z,100.00
2023-01-19T22:36:35.417Z,100.00
2023-01-19T22:39:09.179Z,100.00
2023-01-19T22:41:49.327Z,100.00
2023-01-19T22:44:25.034Z,100.00
2023-01-19T22:46:57.706Z,100.00
2023-01-19T22:49:29.680Z,100.00
2023-01-19T22:52:00.870Z,100.00
2023-01-19T22:54:32.040Z,100.00
2023-01-19T22:57:02.787Z,100.00
2023-01-19T22:59:33.610Z,100.00
2023-01-19T23:02:04.700Z,100.00
2023-01-19T23:04:36.208Z,100.00
2023-01-19T23:07:09.987Z,100.00
2023-01-19T23:09:40.802Z,100.00
2023-01-19T23:12:11.924Z,100.00
2023-01-19T23:14:42.834Z,100.00
2023-01-19T23:17:13.913Z,100.00
2023-01-19T23:19:45.351Z,100.00
2023-01-19T23:22:16.553Z,100.00
2023-01-19T23:24:47.888Z,100.00
2023-01-19T23:27:18.997Z,100.00
2023-01-19T23:29:49.580Z,94.82
2023-01-19T23:32:21.256Z,96.56
2023-01-19T23:34:52.122Z,100.00
2023-01-19T23:37:23.273Z,91.60
2023-01-19T23:39:54.385Z,91.24
2023-01-19T23:42:25.091Z,82.23
2023-01-19T23:44:56.776Z,81.71
2023-01-19T23:47:27.863Z,91.72
2023-01-19T23:49:58.720Z,87.44
2023-01-19T23:52:29.535Z,87.92
2023-01-19T23:55:00.790Z,86.77
2023-01-19T23:57:33.208Z,84.29
